<?xml version="1.0" encoding="UTF-8" standalone="no" ?>
<gpx xmlns="http://www.topografix.com/GPX/1/1" xmlns:xsi="http://www.w3.org/2001/XMLSchema-instance" xsi:schemaLocation="http://www.topografix.com/GPX/1/1 http://www.topografix.com/GPX/1/1/gpx.xsd" version="1.1" creator="VisuGPX - https://www.visugpx.com">
  <metadata>
    <name>La cauche</name>
    <desc><![CDATA[Au départ d\'Ontex une randonnée d\'environ 2H.
Deux jolies point de vues, un sur la vallée du Rhône et l\'un sur le Lac du Bourget. ]]></desc>
  </metadata>
  <trk>
    <name><![CDATA[La cauche-24578692]]></name>
    <trkseg>
      <trkpt lat="45.75448" lon="5.81944">
        <ele>717</ele>
        <time>2026-07-14T08:38:44Z</time>
      </trkpt>
      <trkpt lat="45.75435" lon="5.81958">
        <ele>719</ele>
        <time>2026-07-14T08:38:57Z</time>
      </trkpt>
      <trkpt lat="45.7544" lon="5.8192">
        <ele>720</ele>
        <time>2026-07-14T08:39:19Z</time>
      </trkpt>
      <trkpt lat="45.7546" lon="5.81866">
        <ele>717</ele>
        <time>2026-07-14T08:39:53Z</time>
      </trkpt>
      <trkpt lat="45.75461" lon="5.81857">
        <ele>718</ele>
        <time>2026-07-14T08:39:58Z</time>
      </trkpt>
      <trkpt lat="45.75466" lon="5.81853">
        <ele>716</ele>
        <time>2026-07-14T08:40:02Z</time>
      </trkpt>
      <trkpt lat="45.75468" lon="5.81848">
        <ele>716</ele>
        <time>2026-07-14T08:40:06Z</time>
      </trkpt>
      <trkpt lat="45.75469" lon="5.81842">
        <ele>716</ele>
        <time>2026-07-14T08:40:09Z</time>
      </trkpt>
      <trkpt lat="45.75466" lon="5.8183">
        <ele>717</ele>
        <time>2026-07-14T08:40:16Z</time>
      </trkpt>
      <trkpt lat="45.7545" lon="5.81835">
        <ele>722</ele>
        <time>2026-07-14T08:40:29Z</time>
      </trkpt>
      <trkpt lat="45.75444" lon="5.81839">
        <ele>723</ele>
        <time>2026-07-14T08:40:35Z</time>
      </trkpt>
      <trkpt lat="45.75435" lon="5.81856">
        <ele>724</ele>
        <time>2026-07-14T08:40:47Z</time>
      </trkpt>
      <trkpt lat="45.75428" lon="5.81856">
        <ele>726</ele>
        <time>2026-07-14T08:40:52Z</time>
      </trkpt>
      <trkpt lat="45.75417" lon="5.81844">
        <ele>729</ele>
        <time>2026-07-14T08:41:03Z</time>
      </trkpt>
      <trkpt lat="45.75345" lon="5.81816">
        <ele>753</ele>
        <time>2026-07-14T08:42:03Z</time>
      </trkpt>
      <trkpt lat="45.75325" lon="5.81803">
        <ele>759</ele>
        <time>2026-07-14T08:42:21Z</time>
      </trkpt>
      <trkpt lat="45.75321" lon="5.81801">
        <ele>760</ele>
        <time>2026-07-14T08:42:24Z</time>
      </trkpt>
      <trkpt lat="45.75307" lon="5.81793">
        <ele>765</ele>
        <time>2026-07-14T08:42:36Z</time>
      </trkpt>
      <trkpt lat="45.75264" lon="5.81783">
        <ele>781</ele>
        <time>2026-07-14T08:43:11Z</time>
      </trkpt>
      <trkpt lat="45.75255" lon="5.81773">
        <ele>783</ele>
        <time>2026-07-14T08:43:20Z</time>
      </trkpt>
      <trkpt lat="45.75253" lon="5.81765">
        <ele>783</ele>
        <time>2026-07-14T08:43:25Z</time>
      </trkpt>
      <trkpt lat="45.75252" lon="5.81749">
        <ele>782</ele>
        <time>2026-07-14T08:43:34Z</time>
      </trkpt>
      <trkpt lat="45.75247" lon="5.81748">
        <ele>784</ele>
        <time>2026-07-14T08:43:38Z</time>
      </trkpt>
      <trkpt lat="45.75234" lon="5.8175">
        <ele>790</ele>
        <time>2026-07-14T08:43:48Z</time>
      </trkpt>
      <trkpt lat="45.75222" lon="5.81757">
        <ele>795</ele>
        <time>2026-07-14T08:43:59Z</time>
      </trkpt>
      <trkpt lat="45.7522" lon="5.81758">
        <ele>796</ele>
        <time>2026-07-14T08:44:00Z</time>
      </trkpt>
      <trkpt lat="45.75191" lon="5.81792">
        <ele>810</ele>
        <time>2026-07-14T08:44:30Z</time>
      </trkpt>
      <trkpt lat="45.7517" lon="5.81808">
        <ele>819</ele>
        <time>2026-07-14T08:44:49Z</time>
      </trkpt>
      <trkpt lat="45.7515" lon="5.8181">
        <ele>828</ele>
        <time>2026-07-14T08:45:05Z</time>
      </trkpt>
      <trkpt lat="45.75146" lon="5.81814">
        <ele>830</ele>
        <time>2026-07-14T08:45:09Z</time>
      </trkpt>
      <trkpt lat="45.75142" lon="5.81833">
        <ele>832</ele>
        <time>2026-07-14T08:45:20Z</time>
      </trkpt>
      <trkpt lat="45.75129" lon="5.81859">
        <ele>837</ele>
        <time>2026-07-14T08:45:38Z</time>
      </trkpt>
      <trkpt lat="45.75123" lon="5.81864">
        <ele>839</ele>
        <time>2026-07-14T08:45:44Z</time>
      </trkpt>
      <trkpt lat="45.75108" lon="5.81861">
        <ele>845</ele>
        <time>2026-07-14T08:45:56Z</time>
      </trkpt>
      <trkpt lat="45.75095" lon="5.81846">
        <ele>851</ele>
        <time>2026-07-14T08:46:09Z</time>
      </trkpt>
      <trkpt lat="45.75091" lon="5.81832">
        <ele>854</ele>
        <time>2026-07-14T08:46:18Z</time>
      </trkpt>
      <trkpt lat="45.75076" lon="5.81808">
        <ele>862</ele>
        <time>2026-07-14T08:46:36Z</time>
      </trkpt>
      <trkpt lat="45.7507" lon="5.81779">
        <ele>866</ele>
        <time>2026-07-14T08:46:53Z</time>
      </trkpt>
      <trkpt lat="45.75066" lon="5.81747">
        <ele>868</ele>
        <time>2026-07-14T08:47:11Z</time>
      </trkpt>
      <trkpt lat="45.75071" lon="5.81717">
        <ele>864</ele>
        <time>2026-07-14T08:47:28Z</time>
      </trkpt>
      <trkpt lat="45.75068" lon="5.81708">
        <ele>864</ele>
        <time>2026-07-14T08:47:34Z</time>
      </trkpt>
      <trkpt lat="45.75058" lon="5.817">
        <ele>867</ele>
        <time>2026-07-14T08:47:43Z</time>
      </trkpt>
      <trkpt lat="45.75048" lon="5.817">
        <ele>871</ele>
        <time>2026-07-14T08:47:51Z</time>
      </trkpt>
      <trkpt lat="45.75011" lon="5.81704">
        <ele>885</ele>
        <time>2026-07-14T08:48:21Z</time>
      </trkpt>
      <trkpt lat="45.75001" lon="5.8171">
        <ele>889</ele>
        <time>2026-07-14T08:48:29Z</time>
      </trkpt>
      <trkpt lat="45.75001" lon="5.81728">
        <ele>893</ele>
        <time>2026-07-14T08:48:39Z</time>
      </trkpt>
      <trkpt lat="45.74999" lon="5.81753">
        <ele>898</ele>
        <time>2026-07-14T08:48:53Z</time>
      </trkpt>
      <trkpt lat="45.7499" lon="5.81772">
        <ele>898</ele>
        <time>2026-07-14T08:49:06Z</time>
      </trkpt>
      <trkpt lat="45.74983" lon="5.81813">
        <ele>898</ele>
        <time>2026-07-14T08:49:30Z</time>
      </trkpt>
      <trkpt lat="45.74977" lon="5.81821">
        <ele>898</ele>
        <time>2026-07-14T08:49:36Z</time>
      </trkpt>
      <trkpt lat="45.74959" lon="5.81825">
        <ele>899</ele>
        <time>2026-07-14T08:49:51Z</time>
      </trkpt>
      <trkpt lat="45.74949" lon="5.81825">
        <ele>900</ele>
        <time>2026-07-14T08:49:59Z</time>
      </trkpt>
      <trkpt lat="45.74941" lon="5.81824">
        <ele>900</ele>
        <time>2026-07-14T08:50:05Z</time>
      </trkpt>
      <trkpt lat="45.74925" lon="5.81819">
        <ele>901</ele>
        <time>2026-07-14T08:50:18Z</time>
      </trkpt>
      <trkpt lat="45.7492" lon="5.81814">
        <ele>900</ele>
        <time>2026-07-14T08:50:23Z</time>
      </trkpt>
      <trkpt lat="45.74902" lon="5.8182">
        <ele>895</ele>
        <time>2026-07-14T08:50:38Z</time>
      </trkpt>
      <trkpt lat="45.74894" lon="5.81831">
        <ele>892</ele>
        <time>2026-07-14T08:50:47Z</time>
      </trkpt>
      <trkpt lat="45.74894" lon="5.81859">
        <ele>891</ele>
        <time>2026-07-14T08:51:03Z</time>
      </trkpt>
      <trkpt lat="45.74887" lon="5.81883">
        <ele>887</ele>
        <time>2026-07-14T08:51:17Z</time>
      </trkpt>
      <trkpt lat="45.74885" lon="5.81941">
        <ele>880</ele>
        <time>2026-07-14T08:51:50Z</time>
      </trkpt>
      <trkpt lat="45.74889" lon="5.81966">
        <ele>876</ele>
        <time>2026-07-14T08:52:04Z</time>
      </trkpt>
      <trkpt lat="45.74893" lon="5.81979">
        <ele>874</ele>
        <time>2026-07-14T08:52:12Z</time>
      </trkpt>
      <trkpt lat="45.74894" lon="5.8199">
        <ele>872</ele>
        <time>2026-07-14T08:52:18Z</time>
      </trkpt>
      <trkpt lat="45.74887" lon="5.82022">
        <ele>864</ele>
        <time>2026-07-14T08:52:37Z</time>
      </trkpt>
      <trkpt lat="45.74884" lon="5.82046">
        <ele>859</ele>
        <time>2026-07-14T08:52:50Z</time>
      </trkpt>
      <trkpt lat="45.74891" lon="5.82067">
        <ele>855</ele>
        <time>2026-07-14T08:53:03Z</time>
      </trkpt>
      <trkpt lat="45.74891" lon="5.82085">
        <ele>851</ele>
        <time>2026-07-14T08:53:14Z</time>
      </trkpt>
      <trkpt lat="45.74887" lon="5.821">
        <ele>847</ele>
        <time>2026-07-14T08:53:22Z</time>
      </trkpt>
      <trkpt lat="45.74879" lon="5.82115">
        <ele>844</ele>
        <time>2026-07-14T08:53:33Z</time>
      </trkpt>
      <trkpt lat="45.74878" lon="5.82124">
        <ele>842</ele>
        <time>2026-07-14T08:53:38Z</time>
      </trkpt>
      <trkpt lat="45.74882" lon="5.82129">
        <ele>841</ele>
        <time>2026-07-14T08:53:42Z</time>
      </trkpt>
      <trkpt lat="45.74903" lon="5.82155">
        <ele>835</ele>
        <time>2026-07-14T08:54:05Z</time>
      </trkpt>
      <trkpt lat="45.74918" lon="5.82164">
        <ele>832</ele>
        <time>2026-07-14T08:54:18Z</time>
      </trkpt>
      <trkpt lat="45.74924" lon="5.82175">
        <ele>829</ele>
        <time>2026-07-14T08:54:25Z</time>
      </trkpt>
      <trkpt lat="45.74926" lon="5.82183">
        <ele>827</ele>
        <time>2026-07-14T08:54:30Z</time>
      </trkpt>
      <trkpt lat="45.74923" lon="5.82189">
        <ele>827</ele>
        <time>2026-07-14T08:54:34Z</time>
      </trkpt>
      <trkpt lat="45.74906" lon="5.82191">
        <ele>827</ele>
        <time>2026-07-14T08:54:48Z</time>
      </trkpt>
      <trkpt lat="45.74877" lon="5.82209">
        <ele>826</ele>
        <time>2026-07-14T08:55:13Z</time>
      </trkpt>
      <trkpt lat="45.74857" lon="5.82224">
        <ele>824</ele>
        <time>2026-07-14T08:55:31Z</time>
      </trkpt>
      <trkpt lat="45.74834" lon="5.82249">
        <ele>822</ele>
        <time>2026-07-14T08:55:54Z</time>
      </trkpt>
      <trkpt lat="45.74822" lon="5.82258">
        <ele>821</ele>
        <time>2026-07-14T08:56:05Z</time>
      </trkpt>
      <trkpt lat="45.74822" lon="5.8226">
        <ele>820</ele>
        <time>2026-07-14T08:56:06Z</time>
      </trkpt>
      <trkpt lat="45.74816" lon="5.8229">
        <ele>819</ele>
        <time>2026-07-14T08:56:24Z</time>
      </trkpt>
      <trkpt lat="45.7482" lon="5.82311">
        <ele>818</ele>
        <time>2026-07-14T08:56:36Z</time>
      </trkpt>
      <trkpt lat="45.74832" lon="5.82334">
        <ele>818</ele>
        <time>2026-07-14T08:56:52Z</time>
      </trkpt>
      <trkpt lat="45.74848" lon="5.82339">
        <ele>816</ele>
        <time>2026-07-14T08:57:05Z</time>
      </trkpt>
      <trkpt lat="45.74849" lon="5.82351">
        <ele>815</ele>
        <time>2026-07-14T08:57:12Z</time>
      </trkpt>
      <trkpt lat="45.74846" lon="5.82363">
        <ele>814</ele>
        <time>2026-07-14T08:57:19Z</time>
      </trkpt>
      <trkpt lat="45.74836" lon="5.82388">
        <ele>815</ele>
        <time>2026-07-14T08:57:35Z</time>
      </trkpt>
      <trkpt lat="45.74824" lon="5.82404">
        <ele>814</ele>
        <time>2026-07-14T08:57:48Z</time>
      </trkpt>
      <trkpt lat="45.74813" lon="5.82415">
        <ele>813</ele>
        <time>2026-07-14T08:57:59Z</time>
      </trkpt>
      <trkpt lat="45.74821" lon="5.82426">
        <ele>812</ele>
        <time>2026-07-14T08:58:08Z</time>
      </trkpt>
      <trkpt lat="45.74825" lon="5.82437">
        <ele>810</ele>
        <time>2026-07-14T08:58:15Z</time>
      </trkpt>
      <trkpt lat="45.74824" lon="5.82446">
        <ele>808</ele>
        <time>2026-07-14T08:58:20Z</time>
      </trkpt>
      <trkpt lat="45.74825" lon="5.82437">
        <ele>810</ele>
        <time>2026-07-14T08:58:25Z</time>
      </trkpt>
      <trkpt lat="45.74821" lon="5.82426">
        <ele>812</ele>
        <time>2026-07-14T08:58:32Z</time>
      </trkpt>
      <trkpt lat="45.74813" lon="5.82415">
        <ele>813</ele>
        <time>2026-07-14T08:58:41Z</time>
      </trkpt>
      <trkpt lat="45.74797" lon="5.82443">
        <ele>808</ele>
        <time>2026-07-14T08:59:01Z</time>
      </trkpt>
      <trkpt lat="45.74797" lon="5.82462">
        <ele>806</ele>
        <time>2026-07-14T08:59:12Z</time>
      </trkpt>
      <trkpt lat="45.74795" lon="5.82479">
        <ele>803</ele>
        <time>2026-07-14T08:59:21Z</time>
      </trkpt>
      <trkpt lat="45.7478" lon="5.82515">
        <ele>798</ele>
        <time>2026-07-14T08:59:45Z</time>
      </trkpt>
      <trkpt lat="45.74773" lon="5.8255">
        <ele>790</ele>
        <time>2026-07-14T09:00:05Z</time>
      </trkpt>
      <trkpt lat="45.74755" lon="5.82584">
        <ele>785</ele>
        <time>2026-07-14T09:00:29Z</time>
      </trkpt>
      <trkpt lat="45.7474" lon="5.82608">
        <ele>780</ele>
        <time>2026-07-14T09:00:47Z</time>
      </trkpt>
      <trkpt lat="45.74724" lon="5.82632">
        <ele>774</ele>
        <time>2026-07-14T09:01:05Z</time>
      </trkpt>
      <trkpt lat="45.74697" lon="5.82662">
        <ele>769</ele>
        <time>2026-07-14T09:01:33Z</time>
      </trkpt>
      <trkpt lat="45.74684" lon="5.82681">
        <ele>766</ele>
        <time>2026-07-14T09:01:48Z</time>
      </trkpt>
      <trkpt lat="45.74678" lon="5.82701">
        <ele>761</ele>
        <time>2026-07-14T09:02:00Z</time>
      </trkpt>
      <trkpt lat="45.74678" lon="5.82719">
        <ele>757</ele>
        <time>2026-07-14T09:02:10Z</time>
      </trkpt>
      <trkpt lat="45.74674" lon="5.8273">
        <ele>754</ele>
        <time>2026-07-14T09:02:17Z</time>
      </trkpt>
      <trkpt lat="45.74674" lon="5.82735">
        <ele>753</ele>
        <time>2026-07-14T09:02:20Z</time>
      </trkpt>
      <trkpt lat="45.74676" lon="5.82739">
        <ele>752</ele>
        <time>2026-07-14T09:02:22Z</time>
      </trkpt>
      <trkpt lat="45.74676" lon="5.82743">
        <ele>751</ele>
        <time>2026-07-14T09:02:25Z</time>
      </trkpt>
      <trkpt lat="45.74673" lon="5.82742">
        <ele>751</ele>
        <time>2026-07-14T09:02:27Z</time>
      </trkpt>
      <trkpt lat="45.74681" lon="5.82745">
        <ele>750</ele>
        <time>2026-07-14T09:02:34Z</time>
      </trkpt>
      <trkpt lat="45.74689" lon="5.82753">
        <ele>748</ele>
        <time>2026-07-14T09:02:41Z</time>
      </trkpt>
      <trkpt lat="45.74695" lon="5.82768">
        <ele>744</ele>
        <time>2026-07-14T09:02:51Z</time>
      </trkpt>
      <trkpt lat="45.74706" lon="5.82795">
        <ele>737</ele>
        <time>2026-07-14T09:03:09Z</time>
      </trkpt>
      <trkpt lat="45.74713" lon="5.828">
        <ele>735</ele>
        <time>2026-07-14T09:03:15Z</time>
      </trkpt>
      <trkpt lat="45.74716" lon="5.82801">
        <ele>734</ele>
        <time>2026-07-14T09:03:17Z</time>
      </trkpt>
      <trkpt lat="45.74721" lon="5.82801">
        <ele>734</ele>
        <time>2026-07-14T09:03:21Z</time>
      </trkpt>
      <trkpt lat="45.74735" lon="5.82788">
        <ele>735</ele>
        <time>2026-07-14T09:03:35Z</time>
      </trkpt>
      <trkpt lat="45.74751" lon="5.82769">
        <ele>739</ele>
        <time>2026-07-14T09:03:51Z</time>
      </trkpt>
      <trkpt lat="45.74758" lon="5.82764">
        <ele>740</ele>
        <time>2026-07-14T09:03:58Z</time>
      </trkpt>
      <trkpt lat="45.74766" lon="5.82763">
        <ele>740</ele>
        <time>2026-07-14T09:04:04Z</time>
      </trkpt>
      <trkpt lat="45.74774" lon="5.82763">
        <ele>739</ele>
        <time>2026-07-14T09:04:10Z</time>
      </trkpt>
      <trkpt lat="45.74781" lon="5.82767">
        <ele>738</ele>
        <time>2026-07-14T09:04:16Z</time>
      </trkpt>
      <trkpt lat="45.74788" lon="5.82777">
        <ele>735</ele>
        <time>2026-07-14T09:04:24Z</time>
      </trkpt>
      <trkpt lat="45.74793" lon="5.8279">
        <ele>732</ele>
        <time>2026-07-14T09:04:33Z</time>
      </trkpt>
      <trkpt lat="45.74798" lon="5.82825">
        <ele>722</ele>
        <time>2026-07-14T09:04:53Z</time>
      </trkpt>
      <trkpt lat="45.74802" lon="5.8284">
        <ele>718</ele>
        <time>2026-07-14T09:05:02Z</time>
      </trkpt>
      <trkpt lat="45.74805" lon="5.82844">
        <ele>717</ele>
        <time>2026-07-14T09:05:05Z</time>
      </trkpt>
      <trkpt lat="45.7481" lon="5.82845">
        <ele>716</ele>
        <time>2026-07-14T09:05:09Z</time>
      </trkpt>
      <trkpt lat="45.7482" lon="5.82838">
        <ele>718</ele>
        <time>2026-07-14T09:05:18Z</time>
      </trkpt>
      <trkpt lat="45.74838" lon="5.82823">
        <ele>721</ele>
        <time>2026-07-14T09:05:35Z</time>
      </trkpt>
      <trkpt lat="45.74868" lon="5.82802">
        <ele>722</ele>
        <time>2026-07-14T09:06:01Z</time>
      </trkpt>
      <trkpt lat="45.74889" lon="5.82783">
        <ele>723</ele>
        <time>2026-07-14T09:06:21Z</time>
      </trkpt>
      <trkpt lat="45.74918" lon="5.82753">
        <ele>725</ele>
        <time>2026-07-14T09:06:50Z</time>
      </trkpt>
      <trkpt lat="45.75028" lon="5.82629">
        <ele>718</ele>
        <time>2026-07-14T09:08:42Z</time>
      </trkpt>
      <trkpt lat="45.75059" lon="5.82601">
        <ele>715</ele>
        <time>2026-07-14T09:09:11Z</time>
      </trkpt>
      <trkpt lat="45.75093" lon="5.82574">
        <ele>713</ele>
        <time>2026-07-14T09:09:42Z</time>
      </trkpt>
      <trkpt lat="45.75103" lon="5.82565">
        <ele>713</ele>
        <time>2026-07-14T09:09:52Z</time>
      </trkpt>
      <trkpt lat="45.75111" lon="5.82553">
        <ele>714</ele>
        <time>2026-07-14T09:10:01Z</time>
      </trkpt>
      <trkpt lat="45.75118" lon="5.82541">
        <ele>715</ele>
        <time>2026-07-14T09:10:10Z</time>
      </trkpt>
      <trkpt lat="45.75133" lon="5.82508">
        <ele>719</ele>
        <time>2026-07-14T09:10:32Z</time>
      </trkpt>
      <trkpt lat="45.75139" lon="5.82502">
        <ele>719</ele>
        <time>2026-07-14T09:10:38Z</time>
      </trkpt>
      <trkpt lat="45.75147" lon="5.82496">
        <ele>719</ele>
        <time>2026-07-14T09:10:45Z</time>
      </trkpt>
      <trkpt lat="45.75158" lon="5.82491">
        <ele>720</ele>
        <time>2026-07-14T09:10:54Z</time>
      </trkpt>
      <trkpt lat="45.75178" lon="5.82485">
        <ele>720</ele>
        <time>2026-07-14T09:11:10Z</time>
      </trkpt>
      <trkpt lat="45.75232" lon="5.82474">
        <ele>719</ele>
        <time>2026-07-14T09:11:54Z</time>
      </trkpt>
      <trkpt lat="45.75244" lon="5.8247">
        <ele>719</ele>
        <time>2026-07-14T09:12:04Z</time>
      </trkpt>
      <trkpt lat="45.75256" lon="5.82465">
        <ele>719</ele>
        <time>2026-07-14T09:12:14Z</time>
      </trkpt>
      <trkpt lat="45.75263" lon="5.82461">
        <ele>719</ele>
        <time>2026-07-14T09:12:20Z</time>
      </trkpt>
      <trkpt lat="45.75273" lon="5.82448">
        <ele>721</ele>
        <time>2026-07-14T09:12:31Z</time>
      </trkpt>
      <trkpt lat="45.75281" lon="5.82433">
        <ele>723</ele>
        <time>2026-07-14T09:12:41Z</time>
      </trkpt>
      <trkpt lat="45.75301" lon="5.82407">
        <ele>726</ele>
        <time>2026-07-14T09:13:03Z</time>
      </trkpt>
      <trkpt lat="45.75357" lon="5.82358">
        <ele>726</ele>
        <time>2026-07-14T09:13:56Z</time>
      </trkpt>
      <trkpt lat="45.75381" lon="5.82338">
        <ele>726</ele>
        <time>2026-07-14T09:14:18Z</time>
      </trkpt>
      <trkpt lat="45.75413" lon="5.82299">
        <ele>725</ele>
        <time>2026-07-14T09:14:51Z</time>
      </trkpt>
      <trkpt lat="45.75422" lon="5.82264">
        <ele>726</ele>
        <time>2026-07-14T09:15:12Z</time>
      </trkpt>
      <trkpt lat="45.75435" lon="5.8223">
        <ele>725</ele>
        <time>2026-07-14T09:15:34Z</time>
      </trkpt>
      <trkpt lat="45.7546" lon="5.82175">
        <ele>723</ele>
        <time>2026-07-14T09:16:11Z</time>
      </trkpt>
      <trkpt lat="45.75465" lon="5.82161">
        <ele>722</ele>
        <time>2026-07-14T09:16:19Z</time>
      </trkpt>
      <trkpt lat="45.75464" lon="5.82143">
        <ele>721</ele>
        <time>2026-07-14T09:16:29Z</time>
      </trkpt>
      <trkpt lat="45.75459" lon="5.82129">
        <ele>720</ele>
        <time>2026-07-14T09:16:38Z</time>
      </trkpt>
      <trkpt lat="45.75448" lon="5.82123">
        <ele>721</ele>
        <time>2026-07-14T09:16:48Z</time>
      </trkpt>
      <trkpt lat="45.75445" lon="5.82126">
        <ele>722</ele>
        <time>2026-07-14T09:16:51Z</time>
      </trkpt>
      <trkpt lat="45.75448" lon="5.82123">
        <ele>721</ele>
        <time>2026-07-14T09:16:53Z</time>
      </trkpt>
      <trkpt lat="45.75429" lon="5.82096">
        <ele>722</ele>
        <time>2026-07-14T09:17:15Z</time>
      </trkpt>
      <trkpt lat="45.75424" lon="5.82067">
        <ele>721</ele>
        <time>2026-07-14T09:17:32Z</time>
      </trkpt>
      <trkpt lat="45.75417" lon="5.82064">
        <ele>721</ele>
        <time>2026-07-14T09:17:37Z</time>
      </trkpt>
      <trkpt lat="45.7541" lon="5.82059">
        <ele>722</ele>
        <time>2026-07-14T09:17:44Z</time>
      </trkpt>
      <trkpt lat="45.75405" lon="5.82055">
        <ele>722</ele>
        <time>2026-07-14T09:17:48Z</time>
      </trkpt>
      <trkpt lat="45.75401" lon="5.82048">
        <ele>723</ele>
        <time>2026-07-14T09:17:53Z</time>
      </trkpt>
      <trkpt lat="45.75397" lon="5.82036">
        <ele>723</ele>
        <time>2026-07-14T09:18:01Z</time>
      </trkpt>
      <trkpt lat="45.75397" lon="5.82021">
        <ele>723</ele>
        <time>2026-07-14T09:18:09Z</time>
      </trkpt>
      <trkpt lat="45.754" lon="5.82008">
        <ele>723</ele>
        <time>2026-07-14T09:18:17Z</time>
      </trkpt>
      <trkpt lat="45.75415" lon="5.81983">
        <ele>721</ele>
        <time>2026-07-14T09:18:35Z</time>
      </trkpt>
      <trkpt lat="45.75435" lon="5.81958">
        <ele>719</ele>
        <time>2026-07-14T09:18:56Z</time>
      </trkpt>
    </trkseg>
  </trk>
</gpx>